createdAt,value
2022-12-09T00:02:15.441Z,19.38
2022-12-09T00:04:42.666Z,19.50
2022-12-09T00:07:09.481Z,19.92
2022-12-09T00:09:36.223Z,22.42
2022-12-09T00:12:03.151Z,20.90
2022-12-09T00:14:30.009Z,21.98
2022-12-09T00:16:56.755Z,23.23
2022-12-09T00:19:23.604Z,24.27
2022-12-09T00:21:50.220Z,23.60
2022-12-09T00:24:17.081Z,23.55
2022-12-09T00:26:43.911Z,21.35
2022-12-09T00:29:11.780Z,21.27
2022-12-09T00:31:38.892Z,22.63
2022-12-09T00:34:08.948Z,20.63
2022-12-09T00:36:38.301Z,24.23
2022-12-09T00:39:05.421Z,23.17
2022-12-09T00:41:32.205Z,20.65
2022-12-09T00:43:59.068Z,20.90
2022-12-09T00:46:25.992Z,21.25
2022-12-09T00:48:52.904Z,20.10
2022-12-09T00:51:22.399Z,20.67
2022-12-09T00:53:54.139Z,21.23
2022-12-09T00:56:23.407Z,18.48
2022-12-09T00:58:50.182Z,18.65
2022-12-09T01:01:16.988Z,19.08
2022-12-09T01:03:44.304Z,19.20
2022-12-09T01:06:18.127Z,19.85
2022-12-09T01:08:45.934Z,18.98
2022-12-09T01:11:21.518Z,21.25
2022-12-09T01:13:50.001Z,19.92
2022-12-09T01:16:23.795Z,20.00
2022-12-09T01:18:51.785Z,19.55
2022-12-09T01:21:18.740Z,19.20
2022-12-09T01:23:46.049Z,18.80
2022-12-09T01:26:13.281Z,17.42
2022-12-09T01:28:40.464Z,19.38
2022-12-09T01:31:13.153Z,19.42
2022-12-09T01:33:40.940Z,19.90
2022-12-09T01:36:10.704Z,20.08
2022-12-09T01:38:37.439Z,18.30
2022-12-09T01:41:04.212Z,19.52
2022-12-09T01:43:31.117Z,18.52
2022-12-09T01:45:58.152Z,16.40
2022-12-09T01:48:29.841Z,18.23
2022-12-09T01:51:03.386Z,17.60
2022-12-09T01:53:34.889Z,17.15
2022-12-09T01:56:07.643Z,16.40
2022-12-09T01:58:34.698Z,17.17
2022-12-09T02:01:01.453Z,16.95
2022-12-09T02:03:28.638Z,15.85
2022-12-09T02:05:55.605Z,16.10
2022-12-09T02:08:22.553Z,17.67
2022-12-09T02:11:01.384Z,16.63
2022-12-09T02:13:46.780Z,17.42
2022-12-09T02:16:20.118Z,18.45
2022-12-09T02:19:16.064Z,17.25
2022-12-09T02:21:50.305Z,17.15
2022-12-09T02:24:37.440Z,17.33
2022-12-09T02:27:20.666Z,16.83
2022-12-09T02:30:09.659Z,16.02
2022-12-09T02:33:05.338Z,17.10
2022-12-09T02:35:52.828Z,17.95
2022-12-09T02:38:28.990Z,16.08
2022-12-09T02:41:02.129Z,16.38
2022-12-09T02:43:33.734Z,17.30
2022-12-09T02:46:01.720Z,17.25
2022-12-09T02:48:37.957Z,16.30
2022-12-09T02:51:08.926Z,17.88
2022-12-09T02:53:38.048Z,18.45
2022-12-09T02:56:07.456Z,16.30
2022-12-09T02:58:34.614Z,18.25
2022-12-09T03:01:50.167Z,16.80
2022-12-09T03:04:23.005Z,17.10
2022-12-09T03:06:53.077Z,17.50
2022-12-09T03:09:29.036Z,16.63
2022-12-09T03:11:59.557Z,17.92
2022-12-09T03:14:33.080Z,17.38
2022-12-09T03:17:20.286Z,17.70
2022-12-09T03:19:57.762Z,16.80
2022-12-09T03:22:29.312Z,16.98
2022-12-09T03:25:07.689Z,16.88
2022-12-09T03:27:48.675Z,20.00
2022-12-09T03:30:16.405Z,18.08
2022-12-09T03:32:44.483Z,16.83
2022-12-09T03:35:26.748Z,18.75
2022-12-09T03:37:54.446Z,16.50
2022-12-09T03:40:25.810Z,17.33
2022-12-09T03:43:01.802Z,18.42
2022-12-09T03:45:29.056Z,20.90
2022-12-09T03:47:56.390Z,15.43
2022-12-09T03:50:27.253Z,17.33
2022-12-09T03:53:05.176Z,15.73
2022-12-09T03:55:50.238Z,16.43
2022-12-09T03:58:17.387Z,14.77
2022-12-09T04:00:45.440Z,15.88
2022-12-09T04:03:14.755Z,16.00
2022-12-09T04:05:43.244Z,15.10
2022-12-09T04:08:10.185Z,14.83
2022-12-09T04:10:37.184Z,15.73
2022-12-09T04:13:03.985Z,14.27
2022-12-09T04:15:30.981Z,15.13
2022-12-09T04:17:57.851Z,14.13
2022-12-09T04:20:24.592Z,14.35
2022-12-09T04:22:51.646Z,13.82
2022-12-09T04:25:18.346Z,14.80
2022-12-09T04:27:45.028Z,14.55
2022-12-09T04:30:12.383Z,15.30
2022-12-09T04:32:40.085Z,15.65
2022-12-09T04:35:07.335Z,16.25
2022-12-09T04:37:34.442Z,17.23
2022-12-09T04:40:01.350Z,17.80
2022-12-09T04:42:29.124Z,16.88
2022-12-09T04:44:55.917Z,17.77
2022-12-09T04:47:22.999Z,17.42
2022-12-09T04:49:49.809Z,18.00
2022-12-09T04:52:19.888Z,17.30
2022-12-09T04:54:46.906Z,18.33
2022-12-09T04:57:13.759Z,17.98
2022-12-09T04:59:40.738Z,17.00
2022-12-09T05:02:07.860Z,18.38
2022-12-09T05:04:35.240Z,17.67
2022-12-09T05:07:02.418Z,16.80
2022-12-09T05:09:29.521Z,19.23
2022-12-09T05:11:59.425Z,17.85
2022-12-09T05:14:26.381Z,17.55
2022-12-09T05:16:53.218Z,18.02
2022-12-09T05:19:20.333Z,18.02
2022-12-09T05:21:47.574Z,18.30
2022-12-09T05:24:14.873Z,17.85
2022-12-09T05:26:41.872Z,17.73
2022-12-09T05:29:08.720Z,17.38
2022-12-09T05:31:35.724Z,19.45
2022-12-09T05:34:03.736Z,17.95
2022-12-09T05:36:31.161Z,17.90
2022-12-09T05:38:57.999Z,18.60
2022-12-09T05:41:25.905Z,18.25
2022-12-09T05:43:53.416Z,18.75
2022-12-09T05:46:20.852Z,19.00
2022-12-09T05:48:47.667Z,18.52
2022-12-09T05:51:32.949Z,18.67
2022-12-09T05:54:05.485Z,18.58
2022-12-09T05:56:32.614Z,17.10
2022-12-09T05:58:59.646Z,17.42
2022-12-09T06:01:27.147Z,17.92
2022-12-09T06:03:55.489Z,17.38
2022-12-09T06:06:26.746Z,18.05
2022-12-09T06:08:59.088Z,17.50
2022-12-09T06:11:26.909Z,17.08
2022-12-09T06:13:54.754Z,17.02
2022-12-09T06:16:22.571Z,17.00
2022-12-09T06:18:50.490Z,16.95
2022-12-09T06:21:19.317Z,17.27
2022-12-09T06:23:46.957Z,17.08
2022-12-09T06:26:22.470Z,16.95
2022-12-09T06:28:49.526Z,16.48
2022-12-09T06:31:16.771Z,15.93
2022-12-09T06:34:00.275Z,16.73
2022-12-09T06:36:30.303Z,14.90
2022-12-09T06:39:01.818Z,16.40
2022-12-09T06:41:32.833Z,16.37
2022-12-09T06:44:00.084Z,14.52
2022-12-09T06:46:28.400Z,14.80
2022-12-09T06:48:56.540Z,14.77
2022-12-09T06:51:24.492Z,13.60
2022-12-09T06:53:51.396Z,13.43
2022-12-09T06:56:18.576Z,14.15
2022-12-09T06:58:46.804Z,12.60
2022-12-09T07:01:30.015Z,13.88
2022-12-09T07:03:57.534Z,16.20
2022-12-09T07:06:39.279Z,14.52
2022-12-09T07:09:15.754Z,15.18
2022-12-09T07:11:46.198Z,15.88
2022-12-09T07:14:14.146Z,15.48
2022-12-09T07:16:41.503Z,14.53
2022-12-09T07:19:14.307Z,13.40
2022-12-09T07:21:41.808Z,13.20
2022-12-09T07:24:11.370Z,13.60
2022-12-09T07:26:38.315Z,12.77
2022-12-09T07:29:06.021Z,14.35
2022-12-09T07:31:35.388Z,14.27
2022-12-09T07:34:04.001Z,14.45
2022-12-09T07:36:33.279Z,12.63
2022-12-09T07:39:03.277Z,13.65
2022-12-09T07:41:30.470Z,12.15
2022-12-09T07:43:57.334Z,14.23
2022-12-09T07:46:27.524Z,12.00
2022-12-09T07:48:56.252Z,11.18
2022-12-09T07:51:25.037Z,10.98
2022-12-09T07:53:52.610Z,11.65
2022-12-09T07:56:20.308Z,13.00
2022-12-09T07:58:48.782Z,11.50
2022-12-09T08:01:18.886Z,10.63
2022-12-09T08:03:47.172Z,10.35
2022-12-09T08:06:16.145Z,10.40
2022-12-09T08:08:44.271Z,10.63
2022-12-09T08:11:19.801Z,10.40
2022-12-09T08:13:48.253Z,9.93
2022-12-09T08:16:17.640Z,10.88
2022-12-09T08:18:45.032Z,10.90
2022-12-09T08:21:18.288Z,10.43
2022-12-09T08:23:45.710Z,11.07
2022-12-09T08:26:14.447Z,9.30
2022-12-09T08:28:42.009Z,9.05
2022-12-09T08:31:11.601Z,9.02
2022-12-09T08:33:39.089Z,9.82
2022-12-09T08:36:12.334Z,9.20
2022-12-09T08:38:40.045Z,9.07
2022-12-09T08:41:20.788Z,9.30
2022-12-09T08:43:48.414Z,10.50
2022-12-09T08:46:15.541Z,9.63
2022-12-09T08:48:43.509Z,15.73
2022-12-09T08:51:12.283Z,11.80
2022-12-09T08:53:39.955Z,9.00
2022-12-09T08:56:15.475Z,9.30
2022-12-09T08:58:43.224Z,8.85
2022-12-09T09:01:23.517Z,8.18
2022-12-09T09:03:52.877Z,8.45
2022-12-09T09:06:20.145Z,8.65
2022-12-09T09:08:47.681Z,9.10
2022-12-09T09:11:17.838Z,9.90
2022-12-09T09:13:46.951Z,8.48
2022-12-09T09:16:16.764Z,9.15
2022-12-09T09:18:44.005Z,6.93
2022-12-09T09:21:13.990Z,10.07
2022-12-09T09:23:42.023Z,9.52
2022-12-09T09:26:14.520Z,8.65
2022-12-09T09:28:41.881Z,8.38
2022-12-09T09:31:12.416Z,9.15
2022-12-09T09:33:39.753Z,7.65
2022-12-09T09:36:10.733Z,8.73
2022-12-09T09:38:38.731Z,8.70
2022-12-09T09:41:41.725Z,8.65
2022-12-09T09:44:25.685Z,8.20
2022-12-09T09:46:55.766Z,7.15
2022-12-09T09:49:37.624Z,10.43
2022-12-09T09:52:09.455Z,8.40
2022-12-09T09:54:36.595Z,8.98
2022-12-09T09:57:19.480Z,8.73
2022-12-09T10:00:16.512Z,8.15
2022-12-09T10:02:56.817Z,8.40
2022-12-09T10:05:30.417Z,8.20
2022-12-09T10:08:06.232Z,8.90
2022-12-09T10:10:44.421Z,7.88
2022-12-09T10:13:18.202Z,9.45
2022-12-09T10:15:53.107Z,8.85
2022-12-09T10:18:47.233Z,10.60
2022-12-09T10:21:17.947Z,9.40
2022-12-09T10:23:46.761Z,8.98
2022-12-09T10:26:29.260Z,8.88
2022-12-09T10:29:16.260Z,9.45
2022-12-09T10:31:43.518Z,10.13
2022-12-09T10:34:12.120Z,9.13
2022-12-09T10:36:44.503Z,9.90
2022-12-09T10:39:22.021Z,10.43
2022-12-09T10:42:12.153Z,10.10
2022-12-09T10:44:39.695Z,9.30
2022-12-09T10:47:20.031Z,10.50
2022-12-09T10:49:50.901Z,8.02
2022-12-09T10:52:39.824Z,8.32
2022-12-09T10:55:07.385Z,8.18
2022-12-09T10:57:34.161Z,7.95
2022-12-09T11:00:05.117Z,8.18
2022-12-09T11:02:33.893Z,9.50
2022-12-09T11:05:23.370Z,8.82
2022-12-09T11:07:53.391Z,9.95
2022-12-09T11:10:26.754Z,10.02
2022-12-09T11:12:57.316Z,9.25
2022-12-09T11:15:29.477Z,11.98
2022-12-09T11:18:08.845Z,9.77
2022-12-09T11:20:36.688Z,11.68
2022-12-09T11:23:13.313Z,10.23
2022-12-09T11:25:59.353Z,9.65
2022-12-09T11:28:29.798Z,9.50
2022-12-09T11:33:52.487Z,9.07
2022-12-09T11:36:32.588Z,8.05
2022-12-09T11:39:26.927Z,9.77
2022-12-09T11:42:19.012Z,8.50
2022-12-09T11:45:21.542Z,13.70
2022-12-09T11:48:24.076Z,11.50
2022-12-09T11:50:42.290Z,10.68
2022-12-09T11:53:11.931Z,9.70
2022-12-09T11:55:48.010Z,8.80
2022-12-09T11:58:25.176Z,8.70
2022-12-09T12:01:03.788Z,9.70
2022-12-09T12:03:37.779Z,8.60
2022-12-09T12:06:11.582Z,9.30
2022-12-09T12:08:54.704Z,9.50
2022-12-09T12:11:27.987Z,8.30
2022-12-09T12:14:03.532Z,8.20
2022-12-09T12:16:51.354Z,10.35
2022-12-09T12:19:34.888Z,9.13
2022-12-09T12:22:16.736Z,8.25
2022-12-09T12:24:43.721Z,8.55
2022-12-09T12:27:55.924Z,8.35
2022-12-09T12:30:27.977Z,7.68
2022-12-09T12:33:59.825Z,8.43
2022-12-09T12:36:37.710Z,9.23
2022-12-09T12:39:49.630Z,9.20
2022-12-09T12:42:40.391Z,9.35
2022-12-09T12:45:37.327Z,9.43
2022-12-09T12:48:10.318Z,11.05
2022-12-09T12:50:50.258Z,10.90
2022-12-09T12:53:31.914Z,9.98
2022-12-09T12:56:20.684Z,10.35
2022-12-09T12:58:53.476Z,11.02
2022-12-09T13:01:30.039Z,10.45
2022-12-09T13:04:34.863Z,13.95
2022-12-09T13:07:17.830Z,12.13
2022-12-09T13:09:53.006Z,9.35
2022-12-09T13:12:54.931Z,9.05
2022-12-09T13:15:24.204Z,9.02
2022-12-09T13:17:51.730Z,8.35
2022-12-09T13:20:25.892Z,9.20
2022-12-09T13:23:11.086Z,9.05
2022-12-09T13:25:57.259Z,10.40
2022-12-09T13:28:47.088Z,10.27
2022-12-09T13:31:17.863Z,13.30
2022-12-09T13:34:04.750Z,13.65
2022-12-09T13:36:41.525Z,12.23
2022-12-09T13:39:13.289Z,12.57
2022-12-09T13:42:01.311Z,11.68
2022-12-09T13:44:32.767Z,11.02
2022-12-09T13:47:14.728Z,10.85
2022-12-09T13:49:41.705Z,11.88
2022-12-09T13:52:09.237Z,12.73
2022-12-09T13:54:47.052Z,12.65
2022-12-09T13:57:22.599Z,10.20
2022-12-09T13:59:52.992Z,9.98
2022-12-09T14:02:36.288Z,11.38
2022-12-09T14:05:20.947Z,9.93
2022-12-09T14:07:58.000Z,11.60
2022-12-09T14:10:46.348Z,10.60
2022-12-09T14:13:35.229Z,11.52
2022-12-09T14:16:33.907Z,12.15
2022-12-09T14:19:25.429Z,11.90
2022-12-09T14:22:20.988Z,11.55
2022-12-09T14:24:51.444Z,12.68
2022-12-09T14:27:22.765Z,31.25
2022-12-09T14:29:56.816Z,66.50
2022-12-09T14:35:10.655Z,54.10
2022-12-09T14:37:52.459Z,30.58
2022-12-09T14:40:26.320Z,17.88
2022-12-09T14:43:06.113Z,15.93
2022-12-09T14:45:54.469Z,19.10
2022-12-09T14:48:24.895Z,14.73
2022-12-09T14:51:23.869Z,14.30
2022-12-09T14:53:56.451Z,12.82
2022-12-09T14:56:24.871Z,14.32
2022-12-09T14:59:15.130Z,13.52
2022-12-09T15:01:58.310Z,12.65
2022-12-09T15:04:29.626Z,14.48
2022-12-09T15:07:17.666Z,12.18
2022-12-09T15:10:04.752Z,12.65
2022-12-09T15:12:41.460Z,12.25
2022-12-09T15:15:19.164Z,12.02
2022-12-09T15:17:49.062Z,12.05
2022-12-09T15:20:34.576Z,12.13
2022-12-09T15:23:13.345Z,12.55
2022-12-09T15:25:51.526Z,11.90
2022-12-09T15:28:26.103Z,12.80
2022-12-09T15:31:05.618Z,11.48
2022-12-09T15:33:41.059Z,12.60
2022-12-09T15:36:30.715Z,12.40
2022-12-09T15:39:07.225Z,13.27
2022-12-09T15:42:00.588Z,12.20
2022-12-09T15:44:30.721Z,11.45
2022-12-09T15:46:59.433Z,11.27
2022-12-09T15:49:34.633Z,11.65
2022-12-09T15:52:04.840Z,11.18
2022-12-09T15:54:36.718Z,11.88
2022-12-09T15:57:07.121Z,12.30
2022-12-09T15:59:39.478Z,12.65
2022-12-09T16:02:08.152Z,13.35
2022-12-09T16:04:47.695Z,13.27
2022-12-09T16:07:19.084Z,11.32
2022-12-09T16:10:11.968Z,11.32
2022-12-09T16:12:40.043Z,11.02
2022-12-09T16:15:08.672Z,10.88
2022-12-09T16:17:51.435Z,11.32
2022-12-09T16:20:42.542Z,11.40
2022-12-09T16:23:23.762Z,19.45
2022-12-09T16:25:50.930Z,47.22
2022-12-09T16:28:25.949Z,13.32
2022-12-09T16:30:58.393Z,12.60
2022-12-09T16:33:25.558Z,13.52
2022-12-09T16:36:18.369Z,13.10
2022-12-09T16:39:09.553Z,12.20
2022-12-09T16:41:51.571Z,12.23
2022-12-09T16:44:38.583Z,13.05
2022-12-09T16:47:13.250Z,13.50
2022-12-09T16:49:42.342Z,12.65
2022-12-09T16:52:13.245Z,13.63
2022-12-09T16:54:41.326Z,13.50
2022-12-09T16:57:12.273Z,13.07
2022-12-09T16:59:38.936Z,11.98
2022-12-09T17:02:16.018Z,10.93
2022-12-09T17:04:42.805Z,12.00
2022-12-09T17:07:09.814Z,11.77
2022-12-09T17:09:36.452Z,11.35
2022-12-09T17:12:03.196Z,11.50
2022-12-09T17:14:29.870Z,11.45
2022-12-09T17:16:56.517Z,11.52
2022-12-09T17:19:23.204Z,11.48
2022-12-09T17:21:51.482Z,11.30
2022-12-09T17:24:18.628Z,11.95
2022-12-09T17:26:45.356Z,11.68
2022-12-09T17:29:12.124Z,12.05
2022-12-09T17:31:38.822Z,11.65
2022-12-09T17:34:05.651Z,11.18
2022-12-09T17:36:32.344Z,12.65
2022-12-09T17:39:02.796Z,11.82
2022-12-09T17:41:29.554Z,11.77
2022-12-09T17:43:57.837Z,11.88
2022-12-09T17:46:24.678Z,12.73
2022-12-09T17:48:51.546Z,12.82
2022-12-09T17:51:18.695Z,13.05
2022-12-09T17:53:46.344Z,14.65
2022-12-09T17:56:19.843Z,11.75
2022-12-09T17:58:48.255Z,14.45
2022-12-09T18:01:21.479Z,13.57
2022-12-09T18:03:57.722Z,11.40
2022-12-09T18:06:27.268Z,12.18
2022-12-09T18:08:54.628Z,12.75
2022-12-09T18:11:22.315Z,11.95
2022-12-09T18:13:49.346Z,12.43
2022-12-09T18:16:16.256Z,13.85
2022-12-09T18:18:43.412Z,14.15
2022-12-09T18:21:15.673Z,13.85
2022-12-09T18:23:43.014Z,13.57
2022-12-09T18:26:12.740Z,13.65
2022-12-09T18:28:40.006Z,15.27
2022-12-09T18:31:08.495Z,13.88
2022-12-09T18:33:36.204Z,14.32
2022-12-09T18:36:07.943Z,15.18
2022-12-09T18:38:34.714Z,14.77
2022-12-09T18:41:01.522Z,15.38
2022-12-09T18:43:33.395Z,24.73
2022-12-09T18:46:11.879Z,20.92
2022-12-09T18:48:39.377Z,19.42
2022-12-09T18:51:09.597Z,15.23
2022-12-09T18:53:36.417Z,16.13
2022-12-09T18:56:06.107Z,16.55
2022-12-09T18:58:57.872Z,17.63
2022-12-09T19:01:25.519Z,17.98
2022-12-09T19:03:54.351Z,18.48
2022-12-09T19:06:25.523Z,17.30
2022-12-09T19:08:57.315Z,17.40
2022-12-09T19:11:26.822Z,17.77
2022-12-09T19:13:54.640Z,16.70
2022-12-09T19:16:21.915Z,18.17
2022-12-09T19:18:48.812Z,18.42
2022-12-09T19:21:18.300Z,39.33
2022-12-09T19:23:46.106Z,45.60
2022-12-09T19:26:13.590Z,40.63
2022-12-09T19:28:48.923Z,24.58
2022-12-09T19:31:29.418Z,21.67
2022-12-09T19:33:58.232Z,20.67
2022-12-09T19:36:26.464Z,19.60
2022-12-09T19:38:53.667Z,20.15
2022-12-09T19:41:21.171Z,19.00
2022-12-09T19:43:48.108Z,18.70
2022-12-09T19:46:15.784Z,20.15
2022-12-09T19:48:46.902Z,20.05
2022-12-09T19:51:16.642Z,19.80
2022-12-09T19:53:44.041Z,19.63
2022-12-09T19:56:16.572Z,19.77
2022-12-09T19:58:43.905Z,19.58
2022-12-09T20:01:18.535Z,19.45
2022-12-09T20:03:48.340Z,18.95
2022-12-09T20:06:17.061Z,17.40
2022-12-09T20:08:45.026Z,17.48
2022-12-09T20:11:14.115Z,17.75
2022-12-09T20:13:41.315Z,17.90
2022-12-09T20:16:10.757Z,17.05
2022-12-09T20:18:37.796Z,17.88
2022-12-09T20:21:07.659Z,16.67
2022-12-09T20:23:35.944Z,16.52
2022-12-09T20:26:07.980Z,16.60
2022-12-09T20:28:35.869Z,17.58
2022-12-09T20:31:08.214Z,16.80
2022-12-09T20:33:35.032Z,16.90
2022-12-09T20:36:18.051Z,17.30
2022-12-09T20:38:49.348Z,17.00
2022-12-09T20:41:16.456Z,17.10
2022-12-09T20:43:44.668Z,17.42
2022-12-09T20:46:17.295Z,16.45
2022-12-09T20:48:44.916Z,16.17
2022-12-09T20:51:33.837Z,16.58
2022-12-09T20:54:01.116Z,16.13
2022-12-09T20:56:29.136Z,15.77
2022-12-09T20:58:56.603Z,16.30
2022-12-09T21:01:24.860Z,16.70
2022-12-09T21:03:53.498Z,16.98
2022-12-09T21:06:22.263Z,15.50
2022-12-09T21:08:49.238Z,16.23
2022-12-09T21:11:19.287Z,17.25
2022-12-09T21:13:48.490Z,17.30
2022-12-09T21:16:20.162Z,15.85
2022-12-09T21:18:48.593Z,15.90
2022-12-09T21:21:16.823Z,17.98
2022-12-09T21:23:44.274Z,18.13
2022-12-09T21:26:17.608Z,19.73
2022-12-09T21:28:46.491Z,19.67
2022-12-09T21:31:14.790Z,19.42
2022-12-09T21:33:43.186Z,17.73
2022-12-09T21:36:16.178Z,19.27
2022-12-09T21:38:43.583Z,17.48
2022-12-09T21:41:13.237Z,17.65
2022-12-09T21:43:40.824Z,17.65
2022-12-09T21:46:11.635Z,18.75
2022-12-09T21:48:39.978Z,18.50
2022-12-09T21:51:07.739Z,17.70
2022-12-09T21:53:34.824Z,17.27
2022-12-09T21:56:04.062Z,16.70
2022-12-09T21:58:32.172Z,17.45
2022-12-09T22:00:59.255Z,17.50
2022-12-09T22:03:26.360Z,17.88
2022-12-09T22:05:58.109Z,16.45
2022-12-09T22:08:25.129Z,17.20
2022-12-09T22:10:52.215Z,17.30
2022-12-09T22:13:19.702Z,17.38
2022-12-09T22:15:46.399Z,18.15
2022-12-09T22:18:13.171Z,18.38
2022-12-09T22:21:23.481Z,18.10
2022-12-09T22:23:27.306Z,16.40
2022-12-09T22:25:54.066Z,16.70
2022-12-09T22:28:20.691Z,17.02
2022-12-09T22:30:47.415Z,17.70
2022-12-09T22:33:14.142Z,17.48
2022-12-09T22:35:40.838Z,17.15
2022-12-09T22:38:14.131Z,17.15
2022-12-09T22:40:41.699Z,16.70
2022-12-09T22:43:08.524Z,16.52
2022-12-09T22:45:36.230Z,15.90
2022-12-09T22:48:03.455Z,17.35
2022-12-09T22:50:30.211Z,17.58
2022-12-09T22:52:56.880Z,15.65
2022-12-09T22:55:23.534Z,15.02
2022-12-09T22:57:51.895Z,16.92
2022-12-09T23:00:18.683Z,16.48
2022-12-09T23:02:45.483Z,15.70
2022-12-09T23:05:12.328Z,17.00
2022-12-09T23:07:39.052Z,16.95
2022-12-09T23:10:06.511Z,16.55
2022-12-09T23:12:33.531Z,16.00
2022-12-09T23:15:00.225Z,16.35
2022-12-09T23:17:26.920Z,15.75
2022-12-09T23:19:53.579Z,15.38
2022-12-09T23:22:20.243Z,16.90
2022-12-09T23:24:48.099Z,16.30
2022-12-09T23:27:14.894Z,15.43
2022-12-09T23:29:41.523Z,15.98
2022-12-09T23:32:08.250Z,16.08
2022-12-09T23:34:34.882Z,15.32
2022-12-09T23:37:01.554Z,16.92
2022-12-09T23:39:28.304Z,15.20
2022-12-09T23:41:54.922Z,15.13
2022-12-09T23:44:21.615Z,16.25
2022-12-09T23:46:48.777Z,15.98
2022-12-09T23:49:16.083Z,15.25
2022-12-09T23:51:43.928Z,15.63
2022-12-09T23:54:12.116Z,15.18
2022-12-09T23:56:40.452Z,16.42
2022-12-09T23:59:09.412Z,15.52
